createdAt,value
2023-01-05T00:01:36.195Z,101594.38
2023-01-05T00:04:09.414Z,101581.28
2023-01-05T00:06:43.233Z,101584.47
2023-01-05T00:09:18.195Z,101578.88
2023-01-05T00:12:08.795Z,101569.50
2023-01-05T00:14:59.445Z,101578.91
2023-01-05T00:17:51.607Z,101567.59
2023-01-05T00:20:42.198Z,101579.00
2023-01-05T00:23:22.549Z,101577.47
2023-01-05T00:25:55.331Z,101562.91
2023-01-05T00:28:28.338Z,101564.31
2023-01-05T00:31:02.392Z,101576.53
2023-01-05T00:33:39.583Z,101582.44
2023-01-05T00:36:13.834Z,101583.53
2023-01-05T00:38:55.379Z,101586.78
2023-01-05T00:41:28.521Z,101585.38
2023-01-05T00:44:03.588Z,101591.56
2023-01-05T00:46:38.975Z,101586.09
2023-01-05T00:49:13.517Z,101585.91
2023-01-05T00:51:46.615Z,101589.81
2023-01-05T00:54:19.654Z,101591.94
2023-01-05T00:56:55.507Z,101590.69
2023-01-05T00:59:31.688Z,101592.88
2023-01-05T01:02:05.552Z,101596.28
2023-01-05T01:04:40.580Z,101597.94
2023-01-05T01:07:13.745Z,101593.84
2023-01-05T01:09:46.958Z,101603.97
2023-01-05T01:12:20.092Z,101604.69
2023-01-05T01:14:53.241Z,101611.03
2023-01-05T01:17:28.269Z,101613.41
2023-01-05T01:20:05.289Z,101608.84
2023-01-05T01:22:39.541Z,101614.03
2023-01-05T01:25:17.584Z,101622.00
2023-01-05T01:27:53.170Z,101621.56
2023-01-05T01:30:26.188Z,101613.06
2023-01-05T01:32:59.965Z,101623.34
2023-01-05T01:35:34.268Z,101629.63
2023-01-05T01:38:07.180Z,101631.41
2023-01-05T01:40:40.979Z,101629.31
2023-01-05T01:43:14.613Z,101645.53
2023-01-05T01:45:48.337Z,101641.81
2023-01-05T01:48:21.675Z,101655.94
2023-01-05T01:50:58.495Z,101655.22
2023-01-05T01:53:38.805Z,101646.63
2023-01-05T01:56:17.319Z,101641.91
2023-01-05T01:58:51.512Z,101649.81
2023-01-05T02:01:25.780Z,101646.34
2023-01-05T02:04:03.871Z,101660.47
2023-01-05T02:06:39.239Z,101662.78
2023-01-05T02:09:12.529Z,101656.16
2023-01-05T02:11:55.502Z,101659.00
2023-01-05T02:14:38.295Z,101652.09
2023-01-05T02:17:20.227Z,101644.38
2023-01-05T02:20:27.466Z,101655.16
2023-01-05T02:23:39.906Z,101663.22
2023-01-05T02:26:57.721Z,101668.03
2023-01-05T02:29:58.210Z,101669.63
2023-01-05T02:32:39.041Z,101668.28
2023-01-05T02:35:19.838Z,101668.41
2023-01-05T02:38:01.661Z,101678.81
2023-01-05T02:40:40.633Z,101671.44
2023-01-05T02:43:16.499Z,101674.66
2023-01-05T02:45:51.082Z,101675.09
2023-01-05T02:48:25.901Z,101677.41
2023-01-05T02:51:04.987Z,101676.69
2023-01-05T02:53:42.570Z,101677.84
2023-01-05T02:56:21.954Z,101673.88
2023-01-05T02:59:01.177Z,101661.91
2023-01-05T03:01:38.882Z,101675.25
2023-01-05T03:04:18.802Z,101674.66
2023-01-05T03:06:56.831Z,101663.22
2023-01-05T03:09:36.829Z,101661.38
2023-01-05T03:12:37.744Z,101666.81
2023-01-05T03:15:21.078Z,101682.81
2023-01-05T03:17:59.441Z,101679.47
2023-01-05T03:20:35.766Z,101689.25
2023-01-05T03:23:30.282Z,101693.34
2023-01-05T03:26:21.301Z,101675.91
2023-01-05T03:29:16.259Z,101685.91
2023-01-05T03:32:15.919Z,101681.75
2023-01-05T03:35:12.050Z,101683.09
2023-01-05T03:37:57.413Z,101682.63
2023-01-05T03:40:33.397Z,101685.13
2023-01-05T03:43:08.616Z,101685.56
2023-01-05T03:45:44.977Z,101689.72
2023-01-05T03:48:27.012Z,101685.81
2023-01-05T03:51:01.132Z,101681.22
2023-01-05T03:53:36.745Z,101673.78
2023-01-05T03:56:11.481Z,101673.41
2023-01-05T03:58:44.404Z,101680.25
2023-01-05T04:01:17.402Z,101672.97
2023-01-05T04:03:51.844Z,101676.63
2023-01-05T04:06:25.211Z,101680.19
2023-01-05T04:09:07.129Z,101680.72
2023-01-05T04:11:41.127Z,101682.38
2023-01-05T04:14:14.838Z,101671.59
2023-01-05T04:16:48.316Z,101681.06
2023-01-05T04:19:27.976Z,101683.47
2023-01-05T04:22:02.401Z,101690.91
2023-01-05T04:24:38.510Z,101695.56
2023-01-05T04:27:11.731Z,101691.16
2023-01-05T04:29:45.710Z,101692.56
2023-01-05T04:32:19.305Z,101691.94
2023-01-05T04:34:52.699Z,101696.72
2023-01-05T04:37:27.564Z,101688.22
2023-01-05T04:40:02.718Z,101698.31
2023-01-05T04:42:37.442Z,101705.59
2023-01-05T04:45:12.725Z,101699.47
2023-01-05T04:47:49.320Z,101701.97
2023-01-05T04:50:25.356Z,101713.78
2023-01-05T04:53:00.770Z,101708.59
2023-01-05T04:55:36.818Z,101718.47
2023-01-05T04:58:12.072Z,101718.84
2023-01-05T05:00:46.811Z,101727.44
2023-01-05T05:03:21.297Z,101724.09
2023-01-05T05:05:56.864Z,101734.53
2023-01-05T05:08:32.220Z,101730.25
2023-01-05T05:11:08.233Z,101738.63
2023-01-05T05:13:44.274Z,101730.75
2023-01-05T05:16:17.696Z,101733.25
2023-01-05T05:18:52.794Z,101740.72
2023-01-05T05:21:32.587Z,101740.81
2023-01-05T05:24:08.828Z,101747.81
2023-01-05T05:26:46.834Z,101749.00
2023-01-05T05:29:19.970Z,101743.03
2023-01-05T05:31:53.550Z,101747.47
2023-01-05T05:34:27.933Z,101755.00
2023-01-05T05:37:01.386Z,101753.31
2023-01-05T05:39:36.279Z,101742.41
2023-01-05T05:42:10.951Z,101759.78
2023-01-05T05:44:44.364Z,101760.78
2023-01-05T05:47:19.524Z,101758.19
2023-01-05T05:49:53.034Z,101766.84
2023-01-05T05:52:27.911Z,101777.66
2023-01-05T05:55:00.744Z,101770.03
2023-01-05T05:57:35.033Z,101784.41
2023-01-05T06:00:09.036Z,101782.44
2023-01-05T06:02:48.826Z,101788.19
2023-01-05T06:05:21.787Z,101797.09
2023-01-05T06:07:54.560Z,101800.72
2023-01-05T06:10:27.606Z,101808.66
2023-01-05T06:13:01.579Z,101802.09
2023-01-05T06:15:34.586Z,101802.19
2023-01-05T06:18:07.570Z,101806.19
2023-01-05T06:20:40.517Z,101806.09
2023-01-05T06:23:14.653Z,101816.41
2023-01-05T06:25:47.786Z,101815.19
2023-01-05T06:28:22.173Z,101818.13
2023-01-05T06:30:55.093Z,101819.72
2023-01-05T06:33:28.342Z,101812.53
2023-01-05T06:36:01.403Z,101820.16
2023-01-05T06:38:34.423Z,101820.97
2023-01-05T06:41:09.411Z,101834.84
2023-01-05T06:43:43.990Z,101827.69
2023-01-05T06:46:17.182Z,101833.09
2023-01-05T06:48:51.292Z,101811.94
2023-01-05T06:51:25.467Z,101825.84
2023-01-05T06:53:58.558Z,101832.06
2023-01-05T06:56:31.532Z,101835.03
2023-01-05T06:59:06.057Z,101823.53
2023-01-05T07:01:39.180Z,101838.41
2023-01-05T07:04:12.433Z,101853.59
2023-01-05T07:06:45.293Z,101854.44
2023-01-05T07:09:18.666Z,101853.91
2023-01-05T07:11:51.640Z,101859.38
2023-01-05T07:14:25.638Z,101860.88
2023-01-05T07:17:00.585Z,101856.78
2023-01-05T07:19:33.823Z,101860.88
2023-01-05T07:22:06.881Z,101856.34
2023-01-05T07:24:39.545Z,101868.56
2023-01-05T07:27:12.887Z,101859.53
2023-01-05T07:29:47.426Z,101863.16
2023-01-05T07:32:23.273Z,101849.84
2023-01-05T07:34:57.662Z,101866.22
2023-01-05T07:37:31.115Z,101867.13
2023-01-05T07:40:04.033Z,101861.84
2023-01-05T07:42:36.814Z,101857.88
2023-01-05T07:45:16.959Z,101868.16
2023-01-05T07:47:50.163Z,101866.63
2023-01-05T07:50:23.713Z,101858.09
2023-01-05T07:52:56.662Z,101863.47
2023-01-05T07:55:29.377Z,101871.34
2023-01-05T07:58:02.437Z,101866.69
2023-01-05T08:00:36.408Z,101871.09
2023-01-05T08:03:09.225Z,101872.59
2023-01-05T08:05:42.015Z,101883.09
2023-01-05T08:08:22.307Z,101880.63
2023-01-05T08:10:57.234Z,101891.13
2023-01-05T08:13:47.553Z,101890.47
2023-01-05T08:16:22.295Z,101901.50
2023-01-05T08:18:55.383Z,101896.81
2023-01-05T08:21:28.664Z,101911.94
2023-01-05T08:24:01.427Z,101919.84
2023-01-05T08:26:34.439Z,101921.50
2023-01-05T08:29:07.149Z,101927.72
2023-01-05T08:31:41.319Z,101934.09
2023-01-05T08:34:15.254Z,101939.38
2023-01-05T08:36:47.956Z,101948.06
2023-01-05T08:39:20.715Z,101947.38
2023-01-05T08:41:57.413Z,101951.25
2023-01-05T08:44:33.288Z,101965.31
2023-01-05T08:47:07.304Z,101963.81
2023-01-05T08:49:40.150Z,101961.16
2023-01-05T08:52:12.973Z,101955.00
2023-01-05T08:54:45.702Z,101960.16
2023-01-05T08:57:18.535Z,101958.56
2023-01-05T08:59:51.314Z,101958.34
2023-01-05T09:02:26.225Z,101962.66
2023-01-05T09:04:59.441Z,101954.88
2023-01-05T09:07:31.993Z,101952.41
2023-01-05T09:10:05.286Z,101953.63
2023-01-05T09:12:39.153Z,101959.22
2023-01-05T09:15:12.289Z,101962.88
2023-01-05T09:17:46.534Z,101965.41
2023-01-05T09:20:19.464Z,101961.28
2023-01-05T09:22:52.065Z,101966.78
2023-01-05T09:25:24.790Z,101960.84
2023-01-05T09:27:57.678Z,101962.44
2023-01-05T09:30:36.348Z,101967.22
2023-01-05T09:33:16.308Z,101972.03
2023-01-05T09:35:55.032Z,101970.91
2023-01-05T09:38:27.918Z,101974.78
2023-01-05T09:41:06.676Z,101982.00
2023-01-05T09:43:42.729Z,101981.88
2023-01-05T09:46:19.190Z,102001.22
2023-01-05T09:48:56.467Z,102002.00
2023-01-05T09:51:30.783Z,102004.97
2023-01-05T09:54:04.069Z,102003.16
2023-01-05T09:57:08.629Z,102000.19
2023-01-05T09:59:36.223Z,102012.53
2023-01-05T10:02:18.594Z,102010.69
2023-01-05T10:04:54.335Z,102007.28
2023-01-05T10:07:38.340Z,102016.06
2023-01-05T10:10:30.504Z,102011.81
2023-01-05T10:13:06.853Z,102000.94
2023-01-05T10:15:47.098Z,102004.94
2023-01-05T10:18:23.656Z,101998.78
2023-01-05T10:21:07.433Z,102010.78
2023-01-05T10:23:52.246Z,102009.72
2023-01-05T10:26:39.846Z,102011.44
2023-01-05T10:29:26.383Z,102010.41
2023-01-05T10:32:12.380Z,102013.88
2023-01-05T10:34:57.373Z,102019.59
2023-01-05T10:37:57.666Z,102020.59
2023-01-05T10:40:42.263Z,102030.56
2023-01-05T10:43:30.583Z,102039.59
2023-01-05T10:46:32.115Z,102039.78
2023-01-05T10:48:57.014Z,102040.94
2023-01-05T10:51:34.544Z,102032.00
2023-01-05T10:54:21.600Z,102032.44
2023-01-05T10:56:54.388Z,102026.50
2023-01-05T10:59:27.192Z,102021.56
2023-01-05T11:02:00.560Z,102017.31
2023-01-05T11:04:35.292Z,102016.50
2023-01-05T11:07:08.979Z,102018.22
2023-01-05T11:09:46.090Z,102010.34
2023-01-05T11:12:21.106Z,102005.53
2023-01-05T11:14:58.811Z,102005.03
2023-01-05T11:17:39.920Z,102005.16
2023-01-05T11:20:18.175Z,102008.75
2023-01-05T11:22:51.793Z,102007.41
2023-01-05T11:25:29.072Z,102004.31
2023-01-05T11:28:12.124Z,102003.06
2023-01-05T11:30:59.122Z,102009.91
2023-01-05T11:33:35.941Z,102006.09
2023-01-05T11:36:09.127Z,102005.03
2023-01-05T11:38:42.067Z,102000.78
2023-01-05T11:41:17.313Z,101996.53
2023-01-05T11:43:51.389Z,101994.59
2023-01-05T11:46:24.348Z,102000.44
2023-01-05T11:48:58.352Z,102006.38
2023-01-05T11:51:35.527Z,101998.47
2023-01-05T11:54:29.957Z,101987.56
2023-01-05T11:57:18.447Z,101988.91
2023-01-05T11:59:55.852Z,101986.78
2023-01-05T12:03:02.310Z,101981.34
2023-01-05T12:05:45.675Z,101983.41
2023-01-05T12:08:24.582Z,101968.94
2023-01-05T12:11:11.120Z,101981.53
2023-01-05T12:14:02.582Z,101972.13
2023-01-05T12:16:46.374Z,101969.03
2023-01-05T12:19:55.916Z,101980.84
2023-01-05T12:23:06.052Z,101993.50
2023-01-05T12:25:51.176Z,101977.09
2023-01-05T12:28:44.582Z,101979.88
2023-01-05T12:34:44.377Z,101962.75
2023-01-05T12:37:31.754Z,101960.31
2023-01-05T12:40:26.126Z,101963.63
2023-01-05T12:43:03.059Z,101952.09
2023-01-05T12:46:05.017Z,101951.09
2023-01-05T12:48:46.066Z,101951.44
2023-01-05T12:51:23.516Z,101952.53
2023-01-05T12:54:02.389Z,101955.16
2023-01-05T12:56:39.399Z,101954.53
2023-01-05T12:59:21.663Z,101960.41
2023-01-05T13:02:04.935Z,101959.00
2023-01-05T13:04:50.385Z,101961.56
2023-01-05T13:07:30.168Z,101967.31
2023-01-05T13:10:06.639Z,101958.78
2023-01-05T13:12:41.890Z,101964.47
2023-01-05T13:15:19.415Z,101962.50
2023-01-05T13:17:55.721Z,101961.28
2023-01-05T13:20:38.056Z,101958.22
2023-01-05T13:23:22.432Z,101957.91
2023-01-05T13:25:59.594Z,101957.97
2023-01-05T13:28:34.766Z,101960.28
2023-01-05T13:31:28.924Z,101953.19
2023-01-05T13:34:22.108Z,101947.78
2023-01-05T13:37:28.482Z,101948.94
2023-01-05T13:40:24.167Z,101954.72
2023-01-05T13:43:10.855Z,101950.81
2023-01-05T13:46:31.550Z,101943.28
2023-01-05T13:49:22.516Z,101946.81
2023-01-05T13:51:57.902Z,101946.19
2023-01-05T13:54:49.435Z,101952.13
2023-01-05T13:57:31.744Z,101957.91
2023-01-05T14:00:12.297Z,101956.03
2023-01-05T14:02:47.246Z,101952.50
2023-01-05T14:05:25.829Z,101952.56
2023-01-05T14:08:02.408Z,101949.38
2023-01-05T14:10:35.486Z,101946.56
2023-01-05T14:13:31.714Z,101940.53
2023-01-05T14:16:51.261Z,101938.63
2023-01-05T14:19:52.272Z,101936.72
2023-01-05T14:22:36.352Z,101938.63
2023-01-05T14:25:46.369Z,101940.53
2023-01-05T14:28:43.686Z,101932.53
2023-01-05T14:31:52.419Z,101925.44
2023-01-05T14:34:27.628Z,101927.75
2023-01-05T14:37:03.989Z,101919.13
2023-01-05T14:39:43.454Z,101919.06
2023-01-05T14:42:21.859Z,101921.00
2023-01-05T14:45:02.479Z,101919.41
2023-01-05T14:47:40.833Z,101917.03
2023-01-05T14:50:29.803Z,101925.28
2023-01-05T14:53:07.245Z,101914.25
2023-01-05T14:55:41.943Z,101910.34
2023-01-05T14:58:16.894Z,101920.94
2023-01-05T15:00:57.750Z,101911.78
2023-01-05T15:03:38.752Z,101908.59
2023-01-05T15:06:16.861Z,101910.19
2023-01-05T15:09:10.009Z,101914.53
2023-01-05T15:12:15.272Z,101910.97
2023-01-05T15:15:01.845Z,101903.88
2023-01-05T15:18:02.892Z,101904.63
2023-01-05T15:21:25.133Z,101903.72
2023-01-05T15:24:22.331Z,101898.59
2023-01-05T15:27:23.497Z,101904.53
2023-01-05T15:30:16.431Z,101898.84
2023-01-05T15:32:55.567Z,101891.06
2023-01-05T15:35:37.057Z,101887.03
2023-01-05T15:38:21.929Z,101895.59
2023-01-05T15:41:02.766Z,101888.56
2023-01-05T15:43:41.667Z,101883.75
2023-01-05T15:46:20.945Z,101883.50
2023-01-05T15:48:55.970Z,101883.06
2023-01-05T15:51:33.178Z,101883.50
2023-01-05T15:54:06.769Z,101875.25
2023-01-05T15:56:41.237Z,101875.97
2023-01-05T15:59:23.723Z,101863.38
2023-01-05T16:01:57.185Z,101861.06
2023-01-05T16:04:30.249Z,101852.38
2023-01-05T16:07:06.374Z,101855.47
2023-01-05T16:09:43.350Z,101855.84
2023-01-05T16:12:24.310Z,101847.22
2023-01-05T16:15:01.770Z,101851.59
2023-01-05T16:17:37.304Z,101851.22
2023-01-05T16:20:15.978Z,101851.22
2023-01-05T16:23:00.943Z,101849.97
2023-01-05T16:25:43.711Z,101845.25
2023-01-05T16:28:20.627Z,101852.66
2023-01-05T16:30:55.049Z,101848.38
2023-01-05T16:33:34.765Z,101843.66
2023-01-05T16:36:14.018Z,101841.28
2023-01-05T16:38:48.835Z,101840.84
2023-01-05T16:41:24.537Z,101839.63
2023-01-05T16:43:59.507Z,101839.97
2023-01-05T16:46:35.653Z,101844.84
2023-01-05T16:49:29.369Z,101844.22
2023-01-05T16:52:04.038Z,101847.78
2023-01-05T16:54:41.631Z,101836.41
2023-01-05T16:57:33.648Z,101846.63
2023-01-05T17:00:36.872Z,101851.25
2023-01-05T17:03:31.569Z,101851.69
2023-01-05T17:06:07.364Z,101852.84
2023-01-05T17:08:40.667Z,101847.78
2023-01-05T17:11:13.585Z,101841.84
2023-01-05T17:13:48.331Z,101841.03
2023-01-05T17:16:22.920Z,101843.34
2023-01-05T17:18:56.459Z,101837.03
2023-01-05T17:21:32.107Z,101840.94
2023-01-05T17:24:06.412Z,101832.78
2023-01-05T17:26:42.720Z,101833.97
2023-01-05T17:29:20.452Z,101829.31
2023-01-05T17:31:55.366Z,101827.00
2023-01-05T17:34:28.264Z,101824.34
2023-01-05T17:37:02.129Z,101827.97
2023-01-05T17:39:35.012Z,101830.81
2023-01-05T17:42:25.146Z,101821.03
2023-01-05T17:44:58.371Z,101823.25
2023-01-05T17:50:09.856Z,101822.41
2023-01-05T17:52:42.649Z,101828.84
2023-01-05T17:55:15.587Z,101819.44
2023-01-05T17:57:50.438Z,101824.53
2023-01-05T18:00:28.249Z,101813.72
2023-01-05T18:03:04.668Z,101812.19
2023-01-05T18:05:37.754Z,101810.69
2023-01-05T18:08:11.871Z,101809.25
2023-01-05T18:11:09.191Z,101802.94
2023-01-05T18:16:15.625Z,101799.13
2023-01-05T18:18:50.224Z,101792.84
2023-01-05T18:21:25.735Z,101797.09
2023-01-05T18:23:58.823Z,101789.28
2023-01-05T18:26:31.852Z,101791.16
2023-01-05T18:29:04.599Z,101787.34
2023-01-05T18:31:40.159Z,101782.63
2023-01-05T18:34:16.378Z,101788.03
2023-01-05T18:36:55.616Z,101787.19
2023-01-05T18:39:34.779Z,101787.97
2023-01-05T18:42:07.724Z,101780.16
2023-01-05T18:44:40.479Z,101782.09
2023-01-05T18:47:13.843Z,101775.81
2023-01-05T18:49:53.257Z,101784.06
2023-01-05T18:52:26.370Z,101777.41
2023-01-05T18:55:01.372Z,101780.00
2023-01-05T18:57:36.239Z,101776.50
2023-01-05T19:00:10.273Z,101773.44
2023-01-05T19:02:43.290Z,101783.28
2023-01-05T19:05:19.590Z,101780.16
2023-01-05T19:07:53.492Z,101778.19
2023-01-05T19:10:27.117Z,101779.00
2023-01-05T19:13:00.420Z,101776.50
2023-01-05T19:15:33.627Z,101779.72
2023-01-05T19:18:07.104Z,101774.59
2023-01-05T19:20:41.448Z,101773.75
2023-01-05T19:23:14.697Z,101779.72
2023-01-05T19:25:47.944Z,101773.59
2023-01-05T19:28:21.221Z,101772.00
2023-01-05T19:31:05.076Z,101764.53
2023-01-05T19:33:40.406Z,101755.41
2023-01-05T19:36:17.677Z,101757.69
2023-01-05T19:38:51.134Z,101759.31
2023-01-05T19:41:25.789Z,101749.47
2023-01-05T19:43:59.603Z,101753.53
2023-01-05T19:46:34.987Z,101749.91
2023-01-05T19:49:08.646Z,101749.47
2023-01-05T19:51:43.235Z,101743.25
2023-01-05T19:54:19.089Z,101749.47
2023-01-05T19:56:53.054Z,101760.47
2023-01-05T19:59:34.079Z,101749.31
2023-01-05T20:02:09.682Z,101759.69
2023-01-05T20:04:46.762Z,101760.91
2023-01-05T20:07:21.261Z,101747.88
2023-01-05T20:09:54.476Z,101762.75
2023-01-05T20:12:27.804Z,101759.59
2023-01-05T20:15:03.320Z,101754.88
2023-01-05T20:17:48.947Z,101742.50
2023-01-05T20:20:22.596Z,101742.22
2023-01-05T20:22:59.911Z,101745.25
2023-01-05T20:25:34.682Z,101739.03
2023-01-05T20:28:07.775Z,101741.50
2023-01-05T20:30:40.576Z,101734.69
2023-01-05T20:33:13.898Z,101737.00
2023-01-05T20:35:46.795Z,101735.47
2023-01-05T20:38:21.305Z,101738.22
2023-01-05T20:40:54.459Z,101728.81
2023-01-05T20:43:27.932Z,101736.72
2023-01-05T20:46:00.827Z,101725.56
2023-01-05T20:48:35.668Z,101728.47
2023-01-05T20:51:21.484Z,101730.34
2023-01-05T20:53:59.755Z,101729.38
2023-01-05T20:56:38.505Z,101738.53
2023-01-05T20:59:14.610Z,101734.69
2023-01-05T21:01:48.083Z,101726.44
2023-01-05T21:04:22.454Z,101721.72
2023-01-05T21:06:59.332Z,101731.13
2023-01-05T21:09:34.480Z,101726.06
2023-01-05T21:12:07.548Z,101713.84
2023-01-05T21:14:40.535Z,101719.34
2023-01-05T21:17:13.395Z,101711.53
2023-01-05T21:19:49.230Z,101718.47
2023-01-05T21:22:22.106Z,101724.84
2023-01-05T21:24:56.295Z,101720.78
2023-01-05T21:27:29.340Z,101719.47
2023-01-05T21:30:02.233Z,101722.38
2023-01-05T21:32:35.386Z,101721.56
2023-01-05T21:35:09.308Z,101717.75
2023-01-05T21:37:42.372Z,101721.38
2023-01-05T21:40:17.248Z,101717.66
2023-01-05T21:42:50.365Z,101723.97
2023-01-05T21:45:23.413Z,101725.13
2023-01-05T21:47:57.779Z,101720.06
2023-01-05T21:50:53.661Z,101719.41
2023-01-05T21:53:44.391Z,101722.22
2023-01-05T21:56:27.896Z,101715.91
2023-01-05T21:59:02.851Z,101716.00
2023-01-05T22:01:38.660Z,101708.91
2023-01-05T22:04:12.951Z,101718.31
2023-01-05T22:06:46.314Z,101696.03
2023-01-05T22:09:19.443Z,101704.06
2023-01-05T22:11:53.497Z,101714.41
2023-01-05T22:14:26.480Z,101703.44
2023-01-05T22:16:59.708Z,101693.59
2023-01-05T22:19:32.942Z,101701.16
2023-01-05T22:22:08.330Z,101702.16
2023-01-05T22:24:41.489Z,101709.56
2023-01-05T22:27:16.365Z,101704.28
2023-01-05T22:29:49.452Z,101708.41
2023-01-05T22:32:23.004Z,101704.28
2023-01-05T22:34:55.970Z,101712.31
2023-01-05T22:37:31.061Z,101710.25
2023-01-05T22:40:10.762Z,101709.06
2023-01-05T22:42:45.425Z,101707.41
2023-01-05T22:45:18.447Z,101702.69
2023-01-05T22:47:51.145Z,101701.38
2023-01-05T22:50:24.183Z,101703.56
2023-01-05T22:52:56.804Z,101699.19
2023-01-05T22:55:30.351Z,101706.16
2023-01-05T22:58:05.521Z,101702.69
2023-01-05T23:00:38.580Z,101697.94
2023-01-05T23:03:11.693Z,101699.56
2023-01-05T23:05:44.636Z,101693.84
2023-01-05T23:08:17.441Z,101692.34
2023-01-05T23:10:50.495Z,101693.28
2023-01-05T23:13:24.693Z,101681.59
2023-01-05T23:15:58.131Z,101680.06
2023-01-05T23:18:31.250Z,101667.38
2023-01-05T23:21:07.052Z,101669.69
2023-01-05T23:23:40.645Z,101672.19
2023-01-05T23:26:15.239Z,101676.09
2023-01-05T23:28:49.622Z,101675.63
2023-01-05T23:31:22.697Z,101678.44
2023-01-05T23:33:55.672Z,101668.97
2023-01-05T23:36:31.296Z,101671.16
2023-01-05T23:39:04.497Z,101675.69
2023-01-05T23:41:37.430Z,101658.16
2023-01-05T23:44:14.525Z,101663.03
2023-01-05T23:46:47.516Z,101655.22
2023-01-05T23:49:20.421Z,101656.81
2023-01-05T23:51:53.622Z,101649.09
2023-01-05T23:54:29.677Z,101637.94
2023-01-05T23:57:03.273Z,101642.00
2023-01-05T23:59:37.572Z,101642.63
